Time;durP1;ratioP1;P1;durP2;ratioP2;P2;SDS_P1;SDS_P2;PMS_P1;PMS_P2;Temp;Humidity;BMP_temperature;BMP_pressure;BME280_temperature;BME280_humidity;BME280_pressure;Samples;Min_cycle;Max_cycle;Signal;HPM_P1;HPM_P2
2021/11/16 00:01:44;;;;;;;51.50;29.65;;;;;;;;;;5052967;28;20040;-72
2021/11/16 00:04:18;;;;;;;71.70;36.80;;;;;;;;;;5052996;28;20370;-72
2021/11/16 00:06:53;;;;;;;73.75;38.88;;;;;;;;;;5052662;28;20033;-71
2021/11/16 00:09:19;;;;;;;58.78;31.98;;;;;;;;;;5035219;28;20041;-71
2021/11/16 00:11:44;;;;;;;59.33;32.10;;;;;;;;;;5053427;28;20575;-71
2021/11/16 00:14:10;;;;;;;56.17;31.45;;;;;;;;;;5053164;28;20111;-71
2021/11/16 00:16:42;;;;;;;54.40;29.17;;;;;;;;;;5052922;28;20029;-71
2021/11/16 00:19:12;;;;;;;51.85;29.25;;;;;;;;;;5052539;28;20047;-71
2021/11/16 00:21:40;;;;;;;57.05;30.98;;;;;;;;;;5053160;28;20040;-71
2021/11/16 00:24:11;;;;;;;53.17;31.15;;;;;;;;;;5052933;28;20040;-71
2021/11/16 00:26:36;;;;;;;51.95;28.88;;;;;;;;;;5053148;28;20033;-72
2021/11/16 00:29:02;;;;;;;50.25;28.80;;;;;;;;;;5035185;28;20392;-72
2021/11/16 00:31:31;;;;;;;48.63;28.48;;;;;;;;;;5053344;28;20087;-72
2021/11/16 00:33:56;;;;;;;49.65;28.23;;;;;;;;;;5052273;28;20052;-72
2021/11/16 00:36:22;;;;;;;56.95;30.58;;;;;;;;;;5052696;28;20600;-72
2021/11/16 00:38:47;;;;;;;52.95;30.00;;;;;;;;;;5053210;28;20021;-72
2021/11/16 00:41:13;;;;;;;52.15;29.38;;;;;;;;;;5052867;28;20045;-73
2021/11/16 00:43:38;;;;;;;48.50;28.10;;;;;;;;;;5053036;28;20462;-72
2021/11/16 00:46:05;;;;;;;48.63;28.05;;;;;;;;;;5052973;28;20037;-72
2021/11/16 00:48:30;;;;;;;49.25;29.17;;;;;;;;;;5053109;28;20096;-73
2021/11/16 00:50:59;;;;;;;48.30;27.27;;;;;;;;;;5052770;28;20037;-73
2021/11/16 00:53:28;;;;;;;49.00;26.23;;;;;;;;;;5052923;28;20557;-73
2021/11/16 00:55:54;;;;;;;50.78;27.00;;;;;;;;;;5035089;28;20088;-72
2021/11/16 00:58:21;;;;;;;56.60;31.17;;;;;;;;;;5052611;28;20501;-72
2021/11/16 01:00:47;;;;;;;51.28;28.02;;;;;;;;;;5052767;28;20033;-73
2021/11/16 01:03:13;;;;;;;56.13;31.67;;;;;;;;;;5052855;28;20025;-73
2021/11/16 01:05:39;;;;;;;50.65;29.17;;;;;;;;;;5034891;28;20041;-72
2021/11/16 01:08:12;;;;;;;52.83;29.83;;;;;;;;;;5052609;28;20031;-72
2021/11/16 01:10:44;;;;;;;51.78;30.10;;;;;;;;;;5034775;28;20515;-71
2021/11/16 01:13:11;;;;;;;47.55;28.00;;;;;;;;;;5017665;28;20044;-73
2021/11/16 01:15:38;;;;;;;49.78;28.92;;;;;;;;;;5051361;28;20040;-73
2021/11/16 01:18:04;;;;;;;46.05;26.63;;;;;;;;;;5037215;28;20045;-74
2021/11/16 01:20:30;;;;;;;49.45;27.70;;;;;;;;;;5055983;28;20028;-74
2021/11/16 01:22:57;;;;;;;47.00;27.05;;;;;;;;;;5038235;28;20485;-72
2021/11/16 01:25:23;;;;;;;51.53;26.88;;;;;;;;;;5055976;28;20103;-74
2021/11/16 01:27:49;;;;;;;45.15;25.83;;;;;;;;;;5055875;28;20466;-73
2021/11/16 01:30:17;;;;;;;45.88;26.65;;;;;;;;;;5055861;28;20021;-73
2021/11/16 01:32:50;;;;;;;51.83;29.13;;;;;;;;;;5021248;28;20128;-72
2021/11/16 01:35:16;;;;;;;51.38;29.58;;;;;;;;;;5038146;28;20041;-73
2021/11/16 01:37:41;;;;;;;53.58;30.05;;;;;;;;;;5055984;28;20045;-73
2021/11/16 01:40:09;;;;;;;53.63;29.73;;;;;;;;;;5055472;28;20074;-72
2021/11/16 01:42:35;;;;;;;46.22;26.83;;;;;;;;;;5055680;28;20098;-74
2021/11/16 01:45:01;;;;;;;49.00;27.20;;;;;;;;;;5055718;28;20567;-73
2021/11/16 01:47:27;;;;;;;50.72;29.85;;;;;;;;;;5055386;28;20029;-74
2021/11/16 01:49:53;;;;;;;53.42;29.75;;;;;;;;;;5055466;28;20051;-73
2021/11/16 01:52:18;;;;;;;56.28;31.50;;;;;;;;;;5055579;28;20079;-73
2021/11/16 01:54:45;;;;;;;50.20;28.05;;;;;;;;;;5037722;28;20033;-72
2021/11/16 01:57:10;;;;;;;45.63;26.42;;;;;;;;;;5055431;28;20028;-72
2021/11/16 01:59:38;;;;;;;45.80;25.58;;;;;;;;;;5055627;28;20469;-72
2021/11/16 02:02:04;;;;;;;47.95;26.20;;;;;;;;;;5055695;28;20025;-72
2021/11/16 02:04:33;;;;;;;46.40;26.42;;;;;;;;;;5055530;28;20041;-72
2021/11/16 02:06:58;;;;;;;52.63;28.23;;;;;;;;;;5055092;28;20029;-73
2021/11/16 02:09:24;;;;;;;50.95;28.33;;;;;;;;;;5055515;28;20127;-72
2021/11/16 02:11:51;;;;;;;49.10;26.25;;;;;;;;;;5055321;28;20072;-73
2021/11/16 02:14:18;;;;;;;44.90;26.83;;;;;;;;;;5055412;28;20420;-72
2021/11/16 02:16:44;;;;;;;43.88;25.33;;;;;;;;;;5055092;28;20104;-73
2021/11/16 02:19:12;;;;;;;43.05;25.17;;;;;;;;;;5055159;28;20025;-72
2021/11/16 02:21:38;;;;;;;48.80;26.10;;;;;;;;;;5055638;28;20052;-73
2021/11/16 02:24:05;;;;;;;43.47;24.30;;;;;;;;;;5037479;28;20599;-72
2021/11/16 02:26:31;;;;;;;48.15;27.05;;;;;;;;;;5055482;28;20033;-72
2021/11/16 02:28:56;;;;;;;45.08;26.35;;;;;;;;;;5053968;28;20076;-72
2021/11/16 02:31:22;;;;;;;48.53;26.08;;;;;;;;;;5054907;28;20127;-72
2021/11/16 02:33:48;;;;;;;45.33;25.75;;;;;;;;;;5036094;28;20052;-72
2021/11/16 02:36:13;;;;;;;52.85;28.92;;;;;;;;;;5054263;28;20033;-71
2021/11/16 02:38:39;;;;;;;55.38;29.08;;;;;;;;;;5054494;28;20055;-72
2021/11/16 02:41:05;;;;;;;50.67;27.98;;;;;;;;;;5036878;28;20457;-72
2021/11/16 02:43:32;;;;;;;49.47;26.75;;;;;;;;;;5036945;28;20037;-73
2021/11/16 02:45:58;;;;;;;48.90;26.38;;;;;;;;;;5054740;28;20021;-72
2021/11/16 02:48:23;;;;;;;46.00;25.67;;;;;;;;;;5054484;28;20380;-72
2021/11/16 02:50:50;;;;;;;53.90;28.08;;;;;;;;;;5036766;28;20037;-73
2021/11/16 02:53:16;;;;;;;51.08;27.15;;;;;;;;;;5054655;28;20033;-73
2021/11/16 02:55:43;;;;;;;53.05;29.15;;;;;;;;;;5036487;28;20028;-72
2021/11/16 02:58:11;;;;;;;56.47;29.08;;;;;;;;;;5036701;28;20033;-72
2021/11/16 03:00:38;;;;;;;50.05;26.98;;;;;;;;;;5036560;28;20587;-72
2021/11/16 03:03:04;;;;;;;52.88;26.98;;;;;;;;;;5054460;28;20037;-72
2021/11/16 03:05:36;;;;;;;45.17;25.52;;;;;;;;;;5054118;28;20469;-72
2021/11/16 03:08:10;;;;;;;47.65;25.77;;;;;;;;;;5054490;28;20135;-72
2021/11/16 03:10:35;;;;;;;46.05;25.63;;;;;;;;;;5036503;28;20049;-72
2021/11/16 03:13:02;;;;;;;47.70;25.00;;;;;;;;;;5036246;28;20048;-72
2021/11/16 03:15:27;;;;;;;48.10;24.65;;;;;;;;;;5054329;28;20052;-72
2021/11/16 03:17:53;;;;;;;44.78;26.33;;;;;;;;;;5053903;28;20029;-72
2021/11/16 03:20:19;;;;;;;47.33;25.20;;;;;;;;;;5054123;28;20028;-73
2021/11/16 03:22:55;;;;;;;49.97;26.38;;;;;;;;;;5036544;28;20468;-72
2021/11/16 03:25:25;;;;;;;51.42;27.73;;;;;;;;;;5054043;28;20041;-72
2021/11/16 03:27:56;;;;;;;54.25;28.63;;;;;;;;;;5053919;28;20044;-72
2021/11/16 03:30:22;;;;;;;50.80;27.42;;;;;;;;;;5054113;28;20040;-72
2021/11/16 03:32:48;;;;;;;55.42;29.58;;;;;;;;;;5053140;28;20489;-72
2021/11/16 03:35:13;;;;;;;55.08;30.55;;;;;;;;;;5053807;28;20095;-72
2021/11/16 03:37:46;;;;;;;58.47;30.00;;;;;;;;;;5053607;28;20033;-71
2021/11/16 03:40:12;;;;;;;55.03;29.27;;;;;;;;;;5052790;28;20059;-72
2021/11/16 03:42:40;;;;;;;56.13;28.70;;;;;;;;;;5053523;28;20029;-72
2021/11/16 03:45:07;;;;;;;51.03;28.48;;;;;;;;;;5053803;28;20119;-75
2021/11/16 03:47:32;;;;;;;51.28;28.02;;;;;;;;;;5053204;28;20477;-75
2021/11/16 03:49:57;;;;;;;54.20;28.35;;;;;;;;;;5053228;28;20040;-75
2021/11/16 03:52:25;;;;;;;50.15;27.65;;;;;;;;;;5053383;28;20477;-75
2021/11/16 03:54:50;;;;;;;50.35;27.52;;;;;;;;;;5053742;28;20453;-75
2021/11/16 03:57:16;;;;;;;55.10;29.88;;;;;;;;;;5035371;28;20148;-73
2021/11/16 03:59:41;;;;;;;51.60;27.17;;;;;;;;;;5053374;28;20484;-72
2021/11/16 04:02:07;;;;;;;45.72;25.92;;;;;;;;;;5053181;28;20155;-75
2021/11/16 04:04:33;;;;;;;51.22;27.60;;;;;;;;;;5035557;28;20064;-74
2021/11/16 04:06:59;;;;;;;48.85;26.48;;;;;;;;;;5053482;28;20428;-75
2021/11/16 04:09:25;;;;;;;53.53;28.23;;;;;;;;;;5053252;28;20377;-75
2021/11/16 04:11:50;;;;;;;50.95;26.52;;;;;;;;;;5053430;28;20071;-75
2021/11/16 04:14:16;;;;;;;57.90;30.42;;;;;;;;;;5035412;28;20127;-72
2021/11/16 04:16:41;;;;;;;56.42;29.80;;;;;;;;;;5053216;28;20044;-73
2021/11/16 04:19:07;;;;;;;50.92;27.30;;;;;;;;;;5053307;28;20041;-73
2021/11/16 04:21:32;;;;;;;55.65;28.70;;;;;;;;;;5053324;28;20059;-72
2021/11/16 04:23:58;;;;;;;51.40;27.90;;;;;;;;;;5053182;28;20095;-72
2021/11/16 04:26:25;;;;;;;54.30;28.73;;;;;;;;;;5035539;28;20428;-72
2021/11/16 04:28:51;;;;;;;57.60;29.80;;;;;;;;;;5053099;28;20171;-72
2021/11/16 04:31:17;;;;;;;54.78;27.85;;;;;;;;;;5052913;28;20068;-72
2021/11/16 04:33:43;;;;;;;54.53;28.83;;;;;;;;;;5052578;28;20051;-74
2021/11/16 04:36:11;;;;;;;56.50;29.17;;;;;;;;;;5053123;28;20041;-74
2021/11/16 04:38:37;;;;;;;53.15;28.88;;;;;;;;;;5052992;28;20040;-74
2021/11/16 04:41:02;;;;;;;61.22;31.20;;;;;;;;;;5035274;28;20017;-72
2021/11/16 04:43:29;;;;;;;54.90;29.25;;;;;;;;;;5052973;28;20029;-72
2021/11/16 04:45:58;;;;;;;59.15;29.05;;;;;;;;;;5052740;28;20518;-73
2021/11/16 05:04:31;;;;;;;58.55;29.88;;;;;;;;;;5056478;28;20041;-73
2021/11/16 05:06:57;;;;;;;62.50;30.83;;;;;;;;;;5056295;28;20112;-73
2021/11/16 05:09:23;;;;;;;60.78;29.67;;;;;;;;;;5038406;28;20496;-73
2021/11/16 05:11:48;;;;;;;51.58;26.85;;;;;;;;;;5056247;28;20039;-73
2021/11/16 05:14:14;;;;;;;60.97;30.30;;;;;;;;;;5056028;28;20051;-73
2021/11/16 05:16:40;;;;;;;57.20;29.38;;;;;;;;;;5055990;28;20029;-73
2021/11/16 05:19:06;;;;;;;60.83;29.48;;;;;;;;;;5055928;28;20461;-73
2021/11/16 05:21:32;;;;;;;56.75;28.92;;;;;;;;;;5055729;28;20037;-73
2021/11/16 05:23:58;;;;;;;63.90;30.55;;;;;;;;;;5037826;28;20049;-74
2021/11/16 05:26:26;;;;;;;56.90;28.60;;;;;;;;;;5055365;28;20036;-74
2021/11/16 05:28:54;;;;;;;56.80;28.80;;;;;;;;;;5055531;28;20087;-73
2021/11/16 05:31:19;;;;;;;58.35;28.40;;;;;;;;;;5056101;28;20032;-73
2021/11/16 05:33:45;;;;;;;56.63;30.17;;;;;;;;;;5053111;28;20040;-73
2021/11/16 05:36:10;;;;;;;56.35;28.35;;;;;;;;;;5054109;28;20033;-73
2021/11/16 05:38:37;;;;;;;57.03;28.45;;;;;;;;;;5036842;28;20098;-73
2021/11/16 05:41:03;;;;;;;55.15;26.80;;;;;;;;;;5054764;28;20044;-73
2021/11/16 05:43:29;;;;;;;57.08;27.92;;;;;;;;;;5054299;28;20052;-73
2021/11/16 05:45:55;;;;;;;56.80;28.38;;;;;;;;;;5054970;28;20055;-72
2021/11/16 05:48:22;;;;;;;54.97;27.85;;;;;;;;;;5037400;28;20211;-72
2021/11/16 05:50:48;;;;;;;56.55;27.42;;;;;;;;;;5055302;28;20409;-73
2021/11/16 05:53:15;;;;;;;53.70;26.10;;;;;;;;;;5055398;28;20118;-72
2021/11/16 05:55:42;;;;;;;57.90;27.73;;;;;;;;;;5055206;28;20029;-72
2021/11/16 05:58:07;;;;;;;53.78;26.73;;;;;;;;;;5055276;28;20124;-73
2021/11/16 06:00:33;;;;;;;53.40;27.45;;;;;;;;;;5055273;28;20048;-73
2021/11/16 06:02:58;;;;;;;50.55;26.52;;;;;;;;;;5054652;28;20477;-74
2021/11/16 06:05:24;;;;;;;55.65;27.13;;;;;;;;;;5054305;28;20024;-72
2021/11/16 06:07:49;;;;;;;49.47;25.40;;;;;;;;;;5036738;28;20044;-72
2021/11/16 06:10:15;;;;;;;51.75;25.77;;;;;;;;;;5055429;28;20119;-72
2021/11/16 06:12:41;;;;;;;50.10;25.70;;;;;;;;;;5055519;28;20051;-72
2021/11/16 06:15:07;;;;;;;49.50;25.27;;;;;;;;;;5054789;28;20107;-76
2021/11/16 06:17:34;;;;;;;50.25;25.67;;;;;;;;;;5055560;28;20033;-76
2021/11/16 06:20:00;;;;;;;52.83;26.20;;;;;;;;;;5055253;28;20029;-76
2021/11/16 06:22:26;;;;;;;51.95;25.92;;;;;;;;;;5055205;28;20040;-75
2021/11/16 06:24:53;;;;;;;55.83;28.40;;;;;;;;;;5055253;28;20037;-76
2021/11/16 06:27:21;;;;;;;59.03;28.00;;;;;;;;;;5037315;28;20041;-76
2021/11/16 06:29:47;;;;;;;49.38;24.80;;;;;;;;;;5054024;28;20044;-76
2021/11/16 06:32:14;;;;;;;45.85;24.08;;;;;;;;;;5054844;28;20037;-76
2021/11/16 06:34:40;;;;;;;47.72;24.92;;;;;;;;;;5037094;28;20048;-75
2021/11/16 06:37:07;;;;;;;47.60;24.48;;;;;;;;;;5054711;28;20500;-76
2021/11/16 06:39:33;;;;;;;47.72;24.33;;;;;;;;;;5054269;28;20068;-76
2021/11/16 06:42:01;;;;;;;48.30;22.92;;;;;;;;;;5054561;28;20493;-76
2021/11/16 06:44:26;;;;;;;43.13;23.23;;;;;;;;;;5054795;28;20049;-77
2021/11/16 06:46:53;;;;;;;44.72;22.50;;;;;;;;;;5054908;28;20037;-76
2021/11/16 06:49:19;;;;;;;43.67;22.63;;;;;;;;;;5053546;28;20033;-76
2021/11/16 06:51:45;;;;;;;45.88;23.60;;;;;;;;;;5053846;28;20040;-75
2021/11/16 06:54:19;;;;;;;44.92;24.05;;;;;;;;;;5019902;28;20044;-75
2021/11/16 06:56:46;;;;;;;47.55;24.33;;;;;;;;;;5054577;28;20033;-75
2021/11/16 06:59:13;;;;;;;47.05;24.35;;;;;;;;;;5054509;28;20395;-75
2021/11/16 07:01:39;;;;;;;45.88;22.42;;;;;;;;;;5054322;28;20037;-75
2021/11/16 07:04:11;;;;;;;44.83;23.00;;;;;;;;;;5054927;28;20168;-75
2021/11/16 07:06:38;;;;;;;45.42;24.02;;;;;;;;;;5054741;28;20048;-75
2021/11/16 07:09:04;;;;;;;44.05;22.90;;;;;;;;;;5054115;28;20028;-75
2021/11/16 07:11:30;;;;;;;42.10;21.58;;;;;;;;;;5054484;28;20041;-75
2021/11/16 07:13:59;;;;;;;44.15;23.10;;;;;;;;;;5054012;28;20025;-75
2021/11/16 07:16:26;;;;;;;46.13;23.05;;;;;;;;;;5035944;28;20037;-75
2021/11/16 07:18:53;;;;;;;44.20;23.23;;;;;;;;;;5053287;28;20111;-75
2021/11/16 07:21:20;;;;;;;41.47;22.30;;;;;;;;;;5053230;28;20095;-75
2021/11/16 07:24:00;;;;;;;40.58;21.40;;;;;;;;;;5035749;28;20495;-75
2021/11/16 07:26:26;;;;;;;38.35;20.60;;;;;;;;;;5053926;28;20037;-75
2021/11/16 07:28:51;;;;;;;39.47;21.58;;;;;;;;;;5053751;28;20039;-75
2021/11/16 07:31:20;;;;;;;43.38;22.17;;;;;;;;;;5035975;28;20057;-75
2021/11/16 07:33:46;;;;;;;45.65;22.17;;;;;;;;;;5052898;28;20040;-75
2021/11/16 07:36:14;;;;;;;41.05;22.13;;;;;;;;;;5035489;28;20124;-75
2021/11/16 07:38:39;;;;;;;35.63;19.33;;;;;;;;;;5053428;28;20028;-75
2021/11/16 07:41:04;;;;;;;37.72;19.83;;;;;;;;;;5053126;28;20039;-75
2021/11/16 07:43:30;;;;;;;37.78;20.02;;;;;;;;;;5053423;28;20021;-75
2021/11/16 07:45:56;;;;;;;41.75;20.95;;;;;;;;;;5053173;28;20033;-75
2021/11/16 07:48:22;;;;;;;39.15;21.02;;;;;;;;;;5053360;28;20370;-75
2021/11/16 07:50:53;;;;;;;38.47;21.35;;;;;;;;;;5053306;28;20029;-75
2021/11/16 07:53:27;;;;;;;37.15;19.08;;;;;;;;;;5053250;28;20098;-75
2021/11/16 07:55:54;;;;;;;39.95;21.92;;;;;;;;;;5053186;28;20082;-75
2021/11/16 07:58:20;;;;;;;43.53;22.23;;;;;;;;;;5053270;28;20025;-75
2021/11/16 08:00:48;;;;;;;43.40;23.90;;;;;;;;;;5053121;28;20397;-75
2021/11/16 08:03:17;;;;;;;58.88;28.85;;;;;;;;;;5053081;28;20029;-75
2021/11/16 08:08:50;;;;;;;35.55;19.20;;;;;;;;;;5053171;28;20041;-75
2021/11/16 08:12:24;;;;;;;31.67;18.25;;;;;;;;;;5053185;28;20037;-75
2021/11/16 08:14:13;;;;;;;33.00;19.25;;;;;;;;;;5035318;28;20033;-75
2021/11/16 08:16:53;;;;;;;32.70;19.08;;;;;;;;;;5052941;28;20036;-75
2021/11/16 08:19:20;;;;;;;32.05;17.60;;;;;;;;;;5052944;28;20052;-75
2021/11/16 08:21:46;;;;;;;37.45;20.35;;;;;;;;;;5052926;28;20412;-75
2021/11/16 08:24:13;;;;;;;35.35;20.08;;;;;;;;;;5035027;28;20052;-75
2021/11/16 08:26:42;;;;;;;36.45;19.35;;;;;;;;;;5052501;28;20118;-75
2021/11/16 08:29:08;;;;;;;35.33;20.35;;;;;;;;;;5057069;28;20055;-75
2021/11/16 08:31:42;;;;;;;32.00;19.27;;;;;;;;;;5057057;28;20388;-75
2021/11/16 08:34:08;;;;;;;30.52;18.30;;;;;;;;;;5056755;28;20045;-75
2021/11/16 08:36:42;;;;;;;33.05;20.70;;;;;;;;;;5056963;28;20108;-75
2021/11/16 08:39:08;;;;;;;32.30;18.13;;;;;;;;;;5056853;28;20496;-75
2021/11/16 08:41:34;;;;;;;31.42;18.65;;;;;;;;;;5038824;28;20112;-75
2021/11/16 08:44:14;;;;;;;29.00;17.70;;;;;;;;;;5056813;28;20137;-75
2021/11/16 08:46:40;;;;;;;27.20;16.60;;;;;;;;;;5056777;28;20041;-75
2021/11/16 08:49:06;;;;;;;30.13;16.80;;;;;;;;;;5056682;28;20043;-74
2021/11/16 08:51:39;;;;;;;30.40;18.38;;;;;;;;;;5056619;28;20045;-75
2021/11/16 08:54:04;;;;;;;32.72;17.50;;;;;;;;;;5038899;28;20116;-75
2021/11/16 08:56:35;;;;;;;28.33;17.17;;;;;;;;;;5056467;28;20109;-75
2021/11/16 08:59:09;;;;;;;32.10;17.58;;;;;;;;;;5056536;28;20086;-75
2021/11/16 09:01:34;;;;;;;34.05;18.65;;;;;;;;;;5056521;28;20028;-75
2021/11/16 09:04:00;;;;;;;35.42;19.55;;;;;;;;;;5056402;28;20059;-75
2021/11/16 09:06:30;;;;;;;35.00;19.98;;;;;;;;;;5056270;28;20086;-75
2021/11/16 09:09:10;;;;;;;29.48;18.20;;;;;;;;;;5056324;28;20032;-75
2021/11/16 09:11:36;;;;;;;30.33;17.05;;;;;;;;;;5038380;28;20037;-75
2021/11/16 09:14:09;;;;;;;28.08;16.60;;;;;;;;;;5056074;28;20086;-75
2021/11/16 09:16:36;;;;;;;26.02;15.50;;;;;;;;;;5056081;28;20124;-75
2021/11/16 09:19:01;;;;;;;28.50;17.60;;;;;;;;;;5056249;28;20121;-75
2021/11/16 09:21:35;;;;;;;28.20;16.35;;;;;;;;;;5056176;28;20504;-75
2021/11/16 09:24:00;;;;;;;49.50;30.17;;;;;;;;;;5056121;28;20044;-75
2021/11/16 09:29:00;;;;;;;31.48;18.23;;;;;;;;;;5038065;28;20037;-75
2021/11/16 09:31:29;;;;;;;28.23;17.88;;;;;;;;;;5055951;28;20036;-75
2021/11/16 09:33:56;;;;;;;34.60;20.00;;;;;;;;;;5055437;28;20084;-75
2021/11/16 09:36:33;;;;;;;34.25;20.40;;;;;;;;;;5055743;28;20547;-75
2021/11/16 09:39:06;;;;;;;33.13;19.17;;;;;;;;;;5055763;28;20087;-75
2021/11/16 09:41:36;;;;;;;34.67;20.63;;;;;;;;;;5055810;28;20124;-75
2021/11/16 09:44:08;;;;;;;29.88;18.23;;;;;;;;;;5055668;28;20048;-75
2021/11/16 09:46:45;;;;;;;34.28;20.95;;;;;;;;;;5055523;28;20492;-75
2021/11/16 09:49:11;;;;;;;33.38;18.45;;;;;;;;;;5055524;28;20550;-75
2021/11/16 09:51:38;;;;;;;30.20;18.75;;;;;;;;;;5055493;28;20416;-75
2021/11/16 09:54:06;;;;;;;27.10;17.67;;;;;;;;;;5037524;28;20041;-75
2021/11/16 09:56:32;;;;;;;36.88;19.95;;;;;;;;;;5037460;28;20041;-75
2021/11/16 09:58:58;;;;;;;30.73;17.60;;;;;;;;;;5037388;28;20029;-75
2021/11/16 10:01:29;;;;;;;28.83;17.00;;;;;;;;;;5055333;28;20053;-75
2021/11/16 10:04:12;;;;;;;26.55;15.82;;;;;;;;;;5055392;28;20116;-75
2021/11/16 10:06:37;;;;;;;28.83;17.02;;;;;;;;;;5055272;28;20041;-75
2021/11/16 10:09:04;;;;;;;28.77;17.33;;;;;;;;;;5055160;28;20029;-75
2021/11/16 10:11:32;;;;;;;32.17;18.80;;;;;;;;;;5055063;28;20047;-75
2021/11/16 10:13:58;;;;;;;26.95;17.50;;;;;;;;;;5055140;28;20029;-75
2021/11/16 10:16:23;;;;;;;34.25;19.05;;;;;;;;;;5036796;28;20043;-75
2021/11/16 10:18:49;;;;;;;32.90;17.55;;;;;;;;;;5055107;28;20037;-75
2021/11/16 10:21:15;;;;;;;31.70;19.00;;;;;;;;;;5054902;28;20036;-75
2021/11/16 10:23:42;;;;;;;33.35;20.17;;;;;;;;;;5055004;28;20545;-75
2021/11/16 10:26:08;;;;;;;30.67;19.65;;;;;;;;;;5054829;28;20064;-75
2021/11/16 10:28:35;;;;;;;31.92;20.38;;;;;;;;;;5037026;28;20054;-75
2021/11/16 10:31:01;;;;;;;31.95;20.25;;;;;;;;;;5054800;28;20044;-75
2021/11/16 10:33:35;;;;;;;34.55;21.15;;;;;;;;;;5054426;28;20439;-75
2021/11/16 10:36:00;;;;;;;36.85;20.55;;;;;;;;;;5054720;28;20068;-75
2021/11/16 10:38:27;;;;;;;29.15;17.42;;;;;;;;;;5036673;28;20142;-75
2021/11/16 10:40:53;;;;;;;30.85;18.13;;;;;;;;;;5054613;28;20025;-75
2021/11/16 10:43:19;;;;;;;32.28;18.85;;;;;;;;;;5054491;28;20032;-75
2021/11/16 10:45:46;;;;;;;29.67;18.40;;;;;;;;;;5054502;28;20045;-75
2021/11/16 10:48:16;;;;;;;32.72;18.10;;;;;;;;;;5054447;28;20091;-75
2021/11/16 10:50:46;;;;;;;32.40;19.80;;;;;;;;;;5053941;28;20040;-75
2021/11/16 10:53:13;;;;;;;32.42;19.05;;;;;;;;;;5036489;28;20040;-75
2021/11/16 10:55:41;;;;;;;28.58;16.95;;;;;;;;;;5054160;28;20436;-75
2021/11/16 10:58:09;;;;;;;31.13;19.75;;;;;;;;;;5054118;28;20056;-75
2021/11/16 11:00:44;;;;;;;27.92;18.25;;;;;;;;;;5036473;28;20021;-75
2021/11/16 11:03:17;;;;;;;27.83;17.27;;;;;;;;;;5036452;28;20460;-75
2021/11/16 11:05:45;;;;;;;37.03;23.80;;;;;;;;;;5036290;28;20048;-75
2021/11/16 11:08:11;;;;;;;34.80;21.65;;;;;;;;;;5053868;28;20100;-75
2021/11/16 11:10:44;;;;;;;31.45;16.95;;;;;;;;;;5053705;28;20453;-75
2021/11/16 11:13:21;;;;;;;37.10;22.88;;;;;;;;;;5036017;28;20041;-76
2021/11/16 11:15:50;;;;;;;31.38;20.15;;;;;;;;;;5053722;28;20128;-75
2021/11/16 11:18:30;;;;;;;28.98;18.10;;;;;;;;;;5053835;28;20029;-75
2021/11/16 11:20:57;;;;;;;29.45;19.05;;;;;;;;;;5035870;28;20033;-75
2021/11/16 11:23:28;;;;;;;31.40;18.38;;;;;;;;;;5053917;28;20029;-75
2021/11/16 11:26:13;;;;;;;27.38;17.27;;;;;;;;;;5053754;28;20061;-75
2021/11/16 11:28:41;;;;;;;29.35;18.02;;;;;;;;;;5053795;28;20501;-75
2021/11/16 11:31:26;;;;;;;29.98;19.35;;;;;;;;;;5053731;28;20116;-75
2021/11/16 11:33:52;;;;;;;27.25;18.55;;;;;;;;;;5053126;28;20079;-75
2021/11/16 11:36:20;;;;;;;30.70;20.02;;;;;;;;;;5053452;28;20041;-75
2021/11/16 11:38:47;;;;;;;23.35;15.73;;;;;;;;;;5053618;28;20060;-75
2021/11/16 11:41:13;;;;;;;28.15;17.55;;;;;;;;;;5053500;28;20025;-75
2021/11/16 11:43:39;;;;;;;26.10;16.60;;;;;;;;;;5053312;28;20113;-75
2021/11/16 11:46:05;;;;;;;27.50;17.70;;;;;;;;;;5053303;28;20480;-75
2021/11/16 11:48:31;;;;;;;24.85;16.13;;;;;;;;;;5053218;28;20087;-75
2021/11/16 11:51:11;;;;;;;24.60;16.08;;;;;;;;;;5035305;28;20469;-75
2021/11/16 11:53:37;;;;;;;25.98;16.27;;;;;;;;;;5053287;28;20044;-75
2021/11/16 11:56:10;;;;;;;36.60;22.85;;;;;;;;;;5053216;28;20036;-75
2021/11/16 11:58:36;;;;;;;49.83;30.42;;;;;;;;;;5053175;28;20029;-75
2021/11/16 12:01:08;;;;;;;41.70;26.73;;;;;;;;;;5034870;28;20075;-75
2021/11/16 12:03:36;;;;;;;30.63;20.98;;;;;;;;;;5052670;28;20033;-75
2021/11/16 12:06:01;;;;;;;32.63;17.75;;;;;;;;;;5053048;28;20116;-75
2021/11/16 12:08:28;;;;;;;25.20;16.65;;;;;;;;;;5053083;28;20072;-75
2021/11/16 12:10:54;;;;;;;29.55;18.48;;;;;;;;;;5053101;28;20029;-75
2021/11/16 12:13:30;;;;;;;31.48;19.73;;;;;;;;;;5053073;28;20083;-75
2021/11/16 12:16:04;;;;;;;38.70;23.15;;;;;;;;;;5052934;28;20071;-75
2021/11/16 12:18:40;;;;;;;33.13;19.75;;;;;;;;;;5052906;28;20079;-75
2021/11/16 12:21:25;;;;;;;30.90;19.38;;;;;;;;;;5052882;28;20040;-75
2021/11/16 12:23:55;;;;;;;41.03;24.20;;;;;;;;;;5052839;28;20515;-75
2021/11/16 12:26:20;;;;;;;36.15;22.80;;;;;;;;;;5035191;28;20037;-75
2021/11/16 12:28:47;;;;;;;32.47;19.40;;;;;;;;;;5052786;28;20443;-75
2021/11/16 12:31:42;;;;;;;30.92;20.20;;;;;;;;;;5052773;28;20041;-75
2021/11/16 12:34:08;;;;;;;30.98;18.23;;;;;;;;;;5035454;28;20049;-75
2021/11/16 12:36:33;;;;;;;33.30;19.65;;;;;;;;;;5052715;28;20072;-75
2021/11/16 12:39:17;;;;;;;29.17;18.05;;;;;;;;;;5052706;28;20481;-75
2021/11/16 12:41:43;;;;;;;32.17;20.23;;;;;;;;;;5052725;28;20392;-75
2021/11/16 12:44:09;;;;;;;34.90;21.30;;;;;;;;;;5052766;28;20096;-75
2021/11/16 12:46:36;;;;;;;40.40;24.55;;;;;;;;;;5052663;28;20040;-75
2021/11/16 12:49:04;;;;;;;31.45;19.58;;;;;;;;;;5034969;28;20377;-75
2021/11/16 12:51:33;;;;;;;31.85;18.42;;;;;;;;;;5052725;28;20033;-75
2021/11/16 12:54:02;;;;;;;33.03;20.92;;;;;;;;;;5052666;28;20021;-75
2021/11/16 12:56:47;;;;;;;27.77;16.90;;;;;;;;;;5052655;28;20071;-75
2021/11/16 12:59:13;;;;;;;38.67;21.58;;;;;;;;;;5052371;28;20524;-75
2021/11/16 13:01:46;;;;;;;36.85;20.73;;;;;;;;;;5034739;28;20140;-75
2021/11/16 13:04:13;;;;;;;37.50;20.55;;;;;;;;;;5052628;28;20124;-75
2021/11/16 13:06:40;;;;;;;39.45;22.98;;;;;;;;;;5034760;28;20036;-75
2021/11/16 13:09:07;;;;;;;34.00;21.30;;;;;;;;;;5052540;28;20033;-75
2021/11/16 13:11:39;;;;;;;38.85;23.33;;;;;;;;;;5052521;28;20041;-75
2021/11/16 13:14:06;;;;;;;38.55;21.10;;;;;;;;;;5055003;28;20047;-75
2021/11/16 13:16:32;;;;;;;35.08;20.73;;;;;;;;;;5056197;28;20071;-75
2021/11/16 13:18:59;;;;;;;41.67;24.20;;;;;;;;;;5056089;28;20442;-75
2021/11/16 13:21:25;;;;;;;35.97;21.50;;;;;;;;;;5038187;28;20032;-75
2021/11/16 13:24:01;;;;;;;40.63;23.80;;;;;;;;;;5056163;28;20029;-75
2021/11/16 13:26:27;;;;;;;38.53;24.42;;;;;;;;;;5056173;28;20102;-75
2021/11/16 13:29:20;;;;;;;42.20;26.13;;;;;;;;;;5038141;28;20064;-75
2021/11/16 13:31:48;;;;;;;34.65;22.48;;;;;;;;;;5055837;28;20041;-75
2021/11/16 13:34:16;;;;;;;37.17;23.02;;;;;;;;;;5055535;28;20484;-75
2021/11/16 13:36:55;;;;;;;35.10;21.50;;;;;;;;;;5055702;28;20037;-75
2021/11/16 13:39:22;;;;;;;40.22;25.38;;;;;;;;;;5055838;28;20404;-75
2021/11/16 13:42:08;;;;;;;40.10;24.50;;;;;;;;;;5037743;28;20025;-75
2021/11/16 13:44:40;;;;;;;37.85;23.48;;;;;;;;;;5037813;28;20025;-75
2021/11/16 13:47:13;;;;;;;36.25;22.95;;;;;;;;;;5055611;28;20499;-75
2021/11/16 13:49:39;;;;;;;36.88;23.08;;;;;;;;;;5055407;28;20500;-75
2021/11/16 13:52:16;;;;;;;38.63;22.33;;;;;;;;;;5055405;28;20429;-75
2021/11/16 13:54:42;;;;;;;37.55;21.45;;;;;;;;;;5021082;28;20044;-75
2021/11/16 13:57:10;;;;;;;47.72;26.10;;;;;;;;;;5055400;28;20041;-75
2021/11/16 13:59:37;;;;;;;44.30;23.27;;;;;;;;;;5037389;28;20029;-75
2021/11/16 14:02:04;;;;;;;38.03;21.17;;;;;;;;;;5055398;28;20041;-75
2021/11/16 14:04:30;;;;;;;38.72;22.05;;;;;;;;;;5055336;28;20055;-75
2021/11/16 14:07:12;;;;;;;40.90;23.90;;;;;;;;;;5055271;28;20500;-75
2021/11/16 14:09:38;;;;;;;37.45;23.50;;;;;;;;;;5037482;28;20037;-75
2021/11/16 14:12:03;;;;;;;43.75;25.67;;;;;;;;;;5055171;28;20112;-75
2021/11/16 14:14:31;;;;;;;49.70;29.42;;;;;;;;;;5055049;28;20040;-75
2021/11/16 14:16:57;;;;;;;45.38;27.60;;;;;;;;;;5054926;28;20040;-75
2021/11/16 14:19:23;;;;;;;44.40;26.77;;;;;;;;;;5055059;28;20111;-75
2021/11/16 14:21:51;;;;;;;48.55;27.17;;;;;;;;;;5054942;28;20472;-75
2021/11/16 14:24:33;;;;;;;50.22;29.65;;;;;;;;;;5054136;28;20048;-75
2021/11/16 14:26:59;;;;;;;51.72;29.17;;;;;;;;;;5054902;28;20587;-75
2021/11/16 14:29:25;;;;;;;61.72;36.50;;;;;;;;;;5020482;28;20033;-75
2021/11/16 14:31:51;;;;;;;62.58;39.72;;;;;;;;;;5054728;28;20029;-75
2021/11/16 14:34:20;;;;;;;67.55;38.67;;;;;;;;;;5036722;28;20040;-75
2021/11/16 14:36:50;;;;;;;67.43;34.40;;;;;;;;;;5054670;28;20048;-75
2021/11/16 14:39:21;;;;;;;60.92;32.33;;;;;;;;;;5054668;28;20091;-75
2021/11/16 14:41:51;;;;;;;58.45;32.63;;;;;;;;;;5054585;28;20481;-75
2021/11/16 14:44:18;;;;;;;101.00;66.25;;;;;;;;;;5054619;28;20033;-75